Valle Del Fuerte International Airport
MMLM : now visible

Airfield :











YOU CAN JOIN US ON...

 
LOGIN :

Register | Disclaimer

   EN    FR    IT 

 









Legend :    VFR   Marginal VFR   IFR   Intensive IFR   Very Intensive IFR
Visi :
Ceiling :
>= 8 km
>= 3000ft
5 to 8 km
1000 to 3000 ft
1500m to 5 km
500 to 1000 ft
800 to 1500m
200 to 500 ft
< 800m
< 200 ft
Symbols :   Thunderstorms  Fog  Heavy snow  Heavy precipitations  Wind > 20 kt






- Airport Elevation : 16 ft
- IATA code : LMM


MMLM - Valle Del Fuerte International

CURRENT METAR :
  • 152348Z 25008KT 10SM FEW020 30/23 A2980 RMK SLP092 8/100

EXPIRED METARs :
  • 152249Z 23008KT 10SM SCT020 30/23 A2980 RMK 8/400 TCU N NE
  • 152145Z 22005KT 10SM SCT020 31/22 A2981 RMK 8/400

TAF TAF MMLM
Valid from the 15 at 18:00 until the 16 at 18:00 UTC


151647Z 1518/1618 14010KT P6SM SCT020
BECMG 1520/1521 23012KT BKN020
FM160200 29005KT P6SM SCT020 SCT080
BECMG 1605/1606 00000KT
FM161200 32006KT 6SM HZ BKN030



MET'MAP, your aeronautical weather chart ! - Copyright ORBIFLY December 2007 - Disclaimer

ORBIFLY MET'MAP TEAM :

Programming & Development : Alexandra Zaïnal
Concept & Development : Baudouin d'Aumeries
Co-Development & Prog : Marc-Olivier Méhu
Technical & hardware support : Manuel Goepfert

Contact : metmap@orbifly.com




SOURCES & CREDITS :

   NOAA       Earth
Advisory